createdAt,value
2023-01-27T00:00:26.709Z,4.70
2023-01-27T00:02:53.296Z,5.10
2023-01-27T00:05:19.773Z,4.03
2023-01-27T00:07:46.227Z,4.35
2023-01-27T00:10:15.143Z,4.15
2023-01-27T00:13:00.443Z,3.72
2023-01-27T00:15:26.989Z,4.55
2023-01-27T00:17:53.426Z,4.60
2023-01-27T00:20:39.850Z,3.25
2023-01-27T00:23:25.082Z,3.60
2023-01-27T00:25:58.372Z,3.83
2023-01-27T00:28:25.545Z,2.97
2023-01-27T00:30:53.055Z,4.60
2023-01-27T00:33:26.620Z,3.75
2023-01-27T00:36:03.543Z,3.60
2023-01-27T00:38:30.940Z,2.95
2023-01-27T00:41:19.571Z,2.83
2023-01-27T00:43:47.095Z,3.25
2023-01-27T00:46:13.923Z,3.33
2023-01-27T00:48:40.400Z,2.70
2023-01-27T00:51:06.912Z,2.53
2023-01-27T00:53:33.612Z,3.35
2023-01-27T00:56:00.030Z,3.85
2023-01-27T00:58:27.131Z,3.45
2023-01-27T01:00:54.662Z,2.65
2023-01-27T01:03:21.923Z,3.60
2023-01-27T01:05:48.819Z,4.35
2023-01-27T01:08:15.411Z,3.03
2023-01-27T01:10:41.988Z,3.15
2023-01-27T01:13:10.205Z,3.90
2023-01-27T01:15:37.652Z,2.67
2023-01-27T01:18:04.553Z,3.20
2023-01-27T01:20:31.063Z,2.50
2023-01-27T01:22:57.591Z,2.95
2023-01-27T01:25:24.071Z,4.20
2023-01-27T01:27:50.556Z,3.88
2023-01-27T01:30:17.272Z,3.05
2023-01-27T01:32:43.736Z,2.55
2023-01-27T01:35:10.204Z,3.00
2023-01-27T01:37:36.751Z,3.47
2023-01-27T01:40:03.283Z,3.35
2023-01-27T01:42:46.302Z,3.90
2023-01-27T01:45:31.487Z,3.60
2023-01-27T01:48:05.177Z,2.85
2023-01-27T01:52:58.572Z,3.33
2023-01-27T01:55:25.036Z,3.15
2023-01-27T01:57:51.794Z,3.60
2023-01-27T02:00:18.264Z,3.35
2023-01-27T02:02:45.364Z,3.15
2023-01-27T02:05:17.251Z,2.97
2023-01-27T02:07:43.809Z,2.75
2023-01-27T02:10:12.028Z,3.38
2023-01-27T02:12:38.646Z,3.28
2023-01-27T02:15:06.438Z,3.30
2023-01-27T02:17:32.907Z,4.15
2023-01-27T02:20:22.118Z,2.80
2023-01-27T02:22:51.681Z,3.05
2023-01-27T02:25:24.558Z,3.20
2023-01-27T02:27:51.013Z,3.30
2023-01-27T02:30:17.489Z,4.20
2023-01-27T02:32:44.441Z,3.35
2023-01-27T02:35:14.005Z,3.03
2023-01-27T02:37:40.617Z,3.78
2023-01-27T02:40:08.799Z,4.53
2023-01-27T02:42:35.283Z,4.45
2023-01-27T02:45:01.711Z,3.47
2023-01-27T02:47:28.203Z,4.68
2023-01-27T02:49:54.699Z,3.53
2023-01-27T02:52:22.155Z,4.78
2023-01-27T02:54:48.592Z,4.25
2023-01-27T02:57:15.073Z,6.18
2023-01-27T02:59:41.540Z,4.07
2023-01-27T03:02:08.058Z,5.32
2023-01-27T03:04:38.838Z,3.63
2023-01-27T03:07:05.383Z,3.65
2023-01-27T03:09:33.085Z,3.92
2023-01-27T03:12:18.080Z,4.78
2023-01-27T03:15:03.186Z,3.92
2023-01-27T03:17:48.392Z,4.00
2023-01-27T03:20:14.819Z,4.00
2023-01-27T03:22:41.358Z,4.63
2023-01-27T03:25:08.230Z,4.10
2023-01-27T03:27:34.886Z,4.95
2023-01-27T03:30:01.587Z,4.03
2023-01-27T03:32:28.828Z,3.55
2023-01-27T03:34:58.733Z,3.90
2023-01-27T03:37:43.880Z,4.28
2023-01-27T03:40:29.770Z,4.85
2023-01-27T03:43:14.881Z,3.92
2023-01-27T03:46:02.868Z,4.05
2023-01-27T03:48:29.339Z,4.13
2023-01-27T03:50:59.384Z,3.75
2023-01-27T03:53:25.909Z,4.25
2023-01-27T03:55:52.490Z,3.85
2023-01-27T03:58:20.599Z,5.28
2023-01-27T04:00:47.812Z,4.85
2023-01-27T04:03:32.966Z,6.22
2023-01-27T04:06:21.591Z,5.82
2023-01-27T04:08:48.067Z,5.80
2023-01-27T04:11:33.077Z,5.95
2023-01-27T04:14:06.184Z,6.35
2023-01-27T04:16:32.937Z,7.13
2023-01-27T04:18:59.508Z,5.93
2023-01-27T04:21:26.080Z,6.93
2023-01-27T04:23:53.025Z,7.28
2023-01-27T04:26:19.915Z,6.50
2023-01-27T04:28:46.977Z,6.95
2023-01-27T04:31:14.558Z,6.80
2023-01-27T04:33:41.746Z,7.50
2023-01-27T04:36:08.623Z,7.82
2023-01-27T04:38:35.163Z,7.50
2023-01-27T04:41:01.683Z,8.63
2023-01-27T04:43:28.165Z,6.85
2023-01-27T04:45:54.734Z,7.80
2023-01-27T04:48:21.901Z,8.25
2023-01-27T04:50:48.344Z,7.55
2023-01-27T04:53:14.852Z,7.90
2023-01-27T04:55:46.633Z,8.85
2023-01-27T04:58:13.388Z,8.63
2023-01-27T05:00:40.006Z,8.70
2023-01-27T05:03:06.659Z,7.88
2023-01-27T05:05:33.260Z,7.65
2023-01-27T05:08:05.920Z,7.72
2023-01-27T05:10:32.617Z,8.35
2023-01-27T05:12:59.199Z,9.10
2023-01-27T05:15:26.087Z,9.30
2023-01-27T05:17:55.583Z,10.77
2023-01-27T05:20:22.575Z,9.27
2023-01-27T05:22:50.771Z,10.05
2023-01-27T05:25:17.236Z,10.45
2023-01-27T05:27:43.801Z,8.57
2023-01-27T05:30:10.654Z,10.88
2023-01-27T05:32:37.111Z,11.48
2023-01-27T05:35:03.779Z,10.77
2023-01-27T05:37:30.332Z,10.07
2023-01-27T05:39:56.843Z,10.32
2023-01-27T05:42:23.342Z,12.02
2023-01-27T05:44:52.907Z,12.63
2023-01-27T05:47:19.444Z,12.13
2023-01-27T05:49:48.905Z,11.90
2023-01-27T05:52:15.396Z,11.60
2023-01-27T05:54:41.830Z,11.90
2023-01-27T05:57:08.320Z,12.07
2023-01-27T05:59:34.946Z,12.77
2023-01-27T06:02:01.461Z,12.02
2023-01-27T06:04:28.045Z,12.75
2023-01-27T06:06:54.581Z,12.32
2023-01-27T06:09:21.136Z,12.82
2023-01-27T06:11:47.688Z,13.27
2023-01-27T06:14:14.820Z,13.32
2023-01-27T06:16:41.480Z,14.70
2023-01-27T06:19:08.107Z,13.88
2023-01-27T06:21:34.580Z,14.57
2023-01-27T06:24:01.131Z,14.65
2023-01-27T06:26:27.715Z,16.17
2023-01-27T06:28:55.573Z,15.02
2023-01-27T06:31:22.507Z,14.93
2023-01-27T06:33:49.656Z,14.35
2023-01-27T06:36:17.219Z,15.15
2023-01-27T06:38:44.129Z,14.27
2023-01-27T06:41:10.821Z,12.95
2023-01-27T06:43:37.375Z,13.05
2023-01-27T06:46:05.881Z,13.35
2023-01-27T06:48:33.137Z,12.73
2023-01-27T06:50:59.814Z,12.52
2023-01-27T06:53:26.587Z,12.85
2023-01-27T06:56:00.289Z,13.00
2023-01-27T06:58:27.505Z,13.52
2023-01-27T07:00:53.951Z,12.35
2023-01-27T07:03:20.427Z,12.68
2023-01-27T07:05:47.054Z,13.07
2023-01-27T07:08:13.553Z,12.70
2023-01-27T07:10:40.012Z,13.27
2023-01-27T07:13:11.320Z,12.88
2023-01-27T07:15:38.138Z,12.75
2023-01-27T07:18:05.292Z,12.77
2023-01-27T07:20:32.325Z,12.52
2023-01-27T07:22:59.656Z,12.60
2023-01-27T07:25:26.214Z,12.35
2023-01-27T07:27:53.000Z,12.93
2023-01-27T07:30:19.515Z,12.13
2023-01-27T07:32:46.087Z,12.73
2023-01-27T07:35:12.567Z,12.43
2023-01-27T07:37:39.023Z,12.57
2023-01-27T07:40:05.809Z,11.65
2023-01-27T07:42:32.323Z,11.82
2023-01-27T07:44:58.766Z,10.85
2023-01-27T07:47:25.267Z,11.15
2023-01-27T07:49:59.206Z,10.82
2023-01-27T07:52:25.834Z,10.98
2023-01-27T07:54:52.363Z,11.35
2023-01-27T07:57:18.966Z,10.70
2023-01-27T07:59:45.454Z,10.55
2023-01-27T08:02:14.187Z,9.82
2023-01-27T08:04:52.487Z,9.57
2023-01-27T08:07:19.942Z,9.02
2023-01-27T08:09:46.402Z,9.20
2023-01-27T08:12:12.989Z,9.00
2023-01-27T08:14:39.434Z,8.50
2023-01-27T08:17:05.948Z,8.07
2023-01-27T08:19:32.515Z,7.22
2023-01-27T08:21:59.001Z,8.15
2023-01-27T08:24:27.824Z,7.55
2023-01-27T08:26:57.261Z,7.57
2023-01-27T08:29:29.692Z,7.43
2023-01-27T08:31:57.519Z,7.55
2023-01-27T08:34:29.933Z,7.10
2023-01-27T08:36:56.436Z,6.88
2023-01-27T08:39:22.915Z,7.05
2023-01-27T08:41:49.413Z,6.15
2023-01-27T08:44:15.886Z,7.03
2023-01-27T08:46:42.540Z,6.45
2023-01-27T08:49:09.390Z,5.38
2023-01-27T08:51:36.024Z,6.28
2023-01-27T08:54:02.612Z,5.60
2023-01-27T08:56:32.086Z,6.57
2023-01-27T08:58:58.565Z,6.13
2023-01-27T09:01:25.300Z,6.40
2023-01-27T09:03:51.903Z,5.40
2023-01-27T09:06:19.136Z,5.28
2023-01-27T09:09:13.929Z,5.10
2023-01-27T09:11:41.638Z,4.55
2023-01-27T09:14:08.402Z,4.88
2023-01-27T09:16:38.296Z,5.30
2023-01-27T09:19:16.587Z,4.72
2023-01-27T09:21:52.614Z,4.90
2023-01-27T09:24:28.992Z,4.25
2023-01-27T09:26:55.550Z,4.13
2023-01-27T09:29:22.094Z,5.38
2023-01-27T09:31:51.641Z,4.75
2023-01-27T09:34:19.451Z,4.60
2023-01-27T09:36:48.657Z,4.40
2023-01-27T09:39:20.076Z,4.57
2023-01-27T09:42:00.078Z,4.18
2023-01-27T09:44:36.329Z,4.05
2023-01-27T09:47:26.693Z,4.25
2023-01-27T09:50:13.462Z,4.22
2023-01-27T09:52:47.555Z,4.10
2023-01-27T09:55:40.338Z,3.80
2023-01-27T09:58:26.805Z,3.45
2023-01-27T10:01:47.501Z,4.97
2023-01-27T10:04:26.035Z,4.80
2023-01-27T10:07:03.011Z,4.20
2023-01-27T10:09:44.096Z,4.55
2023-01-27T10:12:25.737Z,4.60
2023-01-27T10:14:57.686Z,4.18
2023-01-27T10:18:26.704Z,4.50
2023-01-27T10:21:08.907Z,4.45
2023-01-27T10:23:55.097Z,4.10
2023-01-27T10:30:16.968Z,4.05
2023-01-27T10:33:22.723Z,3.92
2023-01-27T10:35:55.972Z,3.60
2023-01-27T10:38:43.319Z,3.58
2023-01-27T10:41:22.203Z,4.20
2023-01-27T10:44:07.805Z,3.85
2023-01-27T10:46:49.772Z,3.88
2023-01-27T10:49:38.274Z,3.70
2023-01-27T10:52:07.551Z,3.80
2023-01-27T10:54:41.336Z,3.92
2023-01-27T10:57:13.927Z,3.55
2023-01-27T10:59:46.407Z,3.65
2023-01-27T11:02:38.699Z,3.92
2023-01-27T11:05:22.635Z,3.83
2023-01-27T11:10:19.346Z,4.03
2023-01-27T11:12:50.805Z,3.80
2023-01-27T11:15:26.321Z,3.80
2023-01-27T11:18:19.298Z,3.70
2023-01-27T11:21:03.668Z,3.95
2023-01-27T11:23:35.706Z,3.50
2023-01-27T11:26:24.210Z,3.50
2023-01-27T11:28:59.959Z,3.17
2023-01-27T11:31:30.006Z,3.47
2023-01-27T11:34:15.310Z,3.80
2023-01-27T11:36:41.866Z,3.20
2023-01-27T11:39:11.126Z,2.72
2023-01-27T11:41:40.107Z,3.58
2023-01-27T11:44:08.861Z,4.05
2023-01-27T11:47:09.919Z,3.90
2023-01-27T11:49:43.080Z,3.80
2023-01-27T11:52:12.072Z,3.63
2023-01-27T11:54:47.071Z,4.05
2023-01-27T11:57:23.900Z,3.67
2023-01-27T11:59:57.624Z,3.47
2023-01-27T12:02:30.278Z,4.10
2023-01-27T12:05:02.135Z,4.07
2023-01-27T12:07:44.859Z,3.63
2023-01-27T12:10:26.015Z,4.03
2023-01-27T12:12:53.343Z,3.30
2023-01-27T12:15:24.242Z,3.42
2023-01-27T12:17:54.964Z,3.85
2023-01-27T12:20:24.751Z,3.65
2023-01-27T12:22:53.597Z,3.67
2023-01-27T12:25:30.476Z,3.70
2023-01-27T12:27:59.021Z,4.00
2023-01-27T12:30:29.734Z,4.30
2023-01-27T12:32:59.995Z,3.78
2023-01-27T12:35:26.482Z,3.55
2023-01-27T12:38:13.400Z,3.60
2023-01-27T12:40:41.889Z,3.85
2023-01-27T12:43:56.197Z,3.75
2023-01-27T12:46:29.930Z,3.55
2023-01-27T12:49:11.786Z,4.13
2023-01-27T12:51:45.064Z,4.05
2023-01-27T12:54:25.078Z,4.25
2023-01-27T12:56:52.593Z,4.53
2023-01-27T12:59:22.044Z,5.15
2023-01-27T13:02:01.064Z,3.85
2023-01-27T13:04:28.996Z,4.15
2023-01-27T13:07:02.713Z,4.28
2023-01-27T13:11:59.931Z,3.88
2023-01-27T13:14:29.061Z,4.32
2023-01-27T13:16:58.740Z,4.32
2023-01-27T13:19:43.913Z,4.75
2023-01-27T13:22:16.204Z,4.70
2023-01-27T13:24:42.823Z,4.93
2023-01-27T13:27:13.026Z,5.20
2023-01-27T13:29:41.875Z,4.60
2023-01-27T13:32:47.549Z,4.43
2023-01-27T13:35:32.042Z,4.82
2023-01-27T13:38:01.603Z,4.57
2023-01-27T13:40:38.193Z,4.80
2023-01-27T13:43:09.907Z,5.32
2023-01-27T13:45:53.415Z,4.93
2023-01-27T13:48:34.667Z,4.75
2023-01-27T13:51:18.151Z,4.80
2023-01-27T13:53:47.188Z,5.47
2023-01-27T13:56:13.661Z,4.53
2023-01-27T13:58:40.051Z,4.93
2023-01-27T14:01:18.932Z,5.00
2023-01-27T14:04:03.920Z,5.95
2023-01-27T14:06:49.197Z,5.30
2023-01-27T14:09:30.207Z,4.75
2023-01-27T14:12:21.641Z,4.93
2023-01-27T14:14:57.836Z,4.43
2023-01-27T14:17:28.307Z,4.60
2023-01-27T14:20:05.043Z,5.63
2023-01-27T14:22:31.766Z,4.28
2023-01-27T14:24:58.237Z,5.10
2023-01-27T14:27:45.463Z,4.05
2023-01-27T14:30:17.542Z,4.88
2023-01-27T14:32:53.194Z,5.10
2023-01-27T14:35:40.879Z,5.07
2023-01-27T14:38:43.132Z,4.82
2023-01-27T14:41:09.550Z,4.90
2023-01-27T14:43:42.140Z,4.93
2023-01-27T14:46:27.444Z,5.53
2023-01-27T14:48:59.543Z,5.20
2023-01-27T14:51:46.616Z,4.70
2023-01-27T14:54:31.207Z,4.78
2023-01-27T14:57:06.753Z,4.47
2023-01-27T14:59:42.634Z,4.85
2023-01-27T15:02:29.624Z,4.20
2023-01-27T15:05:16.821Z,4.22
2023-01-27T15:08:14.506Z,4.55
2023-01-27T15:10:58.052Z,4.65
2023-01-27T15:13:33.613Z,4.03
2023-01-27T15:16:18.781Z,4.10
2023-01-27T15:18:45.304Z,3.80
2023-01-27T15:21:34.788Z,4.35
2023-01-27T15:24:22.542Z,4.05
2023-01-27T15:26:49.086Z,3.90
2023-01-27T15:29:16.129Z,3.95
2023-01-27T15:31:43.191Z,4.65
2023-01-27T15:34:20.608Z,4.38
2023-01-27T15:37:05.833Z,3.97
2023-01-27T15:39:41.489Z,4.13
2023-01-27T15:42:13.437Z,4.28
2023-01-27T15:44:41.863Z,4.38
2023-01-27T15:47:08.414Z,4.35
2023-01-27T15:49:38.001Z,5.00
2023-01-27T15:52:25.758Z,4.47
2023-01-27T15:54:56.680Z,4.35
2023-01-27T15:57:31.681Z,4.75
2023-01-27T16:03:01.547Z,4.55
2023-01-27T16:05:39.303Z,4.53
2023-01-27T16:08:13.557Z,4.45
2023-01-27T16:10:47.058Z,4.75
2023-01-27T16:13:28.284Z,4.45
2023-01-27T16:16:13.623Z,4.90
2023-01-27T16:19:05.788Z,4.00
2023-01-27T16:21:46.851Z,4.85
2023-01-27T16:24:35.778Z,4.75
2023-01-27T16:27:14.318Z,4.85
2023-01-27T16:30:19.548Z,4.82
2023-01-27T16:33:06.734Z,4.80
2023-01-27T16:35:40.915Z,5.35
2023-01-27T16:38:15.222Z,4.68
2023-01-27T16:40:47.280Z,5.20
2023-01-27T16:43:18.604Z,5.40
2023-01-27T16:45:47.307Z,6.07
2023-01-27T16:51:46.061Z,5.70
2023-01-27T16:54:31.082Z,5.35
2023-01-27T16:56:57.969Z,5.10
2023-01-27T16:59:31.825Z,5.25
2023-01-27T17:02:20.120Z,5.30
2023-01-27T17:04:54.271Z,5.43
2023-01-27T17:07:20.827Z,4.85
2023-01-27T17:09:54.716Z,5.80
2023-01-27T17:12:28.179Z,6.00
2023-01-27T17:14:55.056Z,6.20
2023-01-27T17:17:23.058Z,5.25
2023-01-27T17:19:50.807Z,6.07
2023-01-27T17:22:24.594Z,5.70
2023-01-27T17:24:55.000Z,6.18
2023-01-27T17:27:26.498Z,6.88
2023-01-27T17:29:55.645Z,6.28
2023-01-27T17:32:24.884Z,7.25
2023-01-27T17:34:55.455Z,7.75
2023-01-27T17:37:23.058Z,7.13
2023-01-27T17:39:54.241Z,6.78
2023-01-27T17:42:21.643Z,7.15
2023-01-27T17:44:48.987Z,7.68
2023-01-27T17:47:17.080Z,7.32
2023-01-27T17:49:44.603Z,7.97
2023-01-27T17:52:15.423Z,7.88
2023-01-27T17:54:42.172Z,8.48
2023-01-27T17:57:18.568Z,8.60
2023-01-27T17:59:51.878Z,8.07
2023-01-27T18:02:26.538Z,8.40
2023-01-27T18:04:54.397Z,8.88
2023-01-27T18:07:21.167Z,8.55
2023-01-27T18:10:02.326Z,8.32
2023-01-27T18:12:39.646Z,8.32
2023-01-27T18:15:27.465Z,8.02
2023-01-27T18:18:04.164Z,8.40
2023-01-27T18:20:31.813Z,7.78
2023-01-27T18:23:04.554Z,8.18
2023-01-27T18:25:31.063Z,7.83
2023-01-27T18:27:59.126Z,8.80
2023-01-27T18:30:26.129Z,8.63
2023-01-27T18:32:59.502Z,7.78
2023-01-27T18:35:35.352Z,8.40
2023-01-27T18:40:44.082Z,8.40
2023-01-27T18:43:16.727Z,8.52
2023-01-27T18:45:46.478Z,8.30
2023-01-27T18:48:33.654Z,8.27
2023-01-27T18:51:00.157Z,8.75
2023-01-27T18:53:31.276Z,8.60
2023-01-27T18:56:03.616Z,9.15
2023-01-27T18:58:30.353Z,9.32
2023-01-27T19:00:57.543Z,10.15
2023-01-27T19:03:27.925Z,10.55
2023-01-27T19:05:55.046Z,8.85
2023-01-27T19:11:06.130Z,9.07
2023-01-27T19:13:32.605Z,8.65
2023-01-27T19:16:01.771Z,8.88
2023-01-27T19:18:44.546Z,8.25
2023-01-27T19:24:21.675Z,7.80
2023-01-27T19:26:55.819Z,8.00
2023-01-27T19:29:40.506Z,8.70
2023-01-27T19:32:09.003Z,9.05
2023-01-27T19:34:38.100Z,9.18
2023-01-27T19:37:11.355Z,9.45
2023-01-27T19:39:37.928Z,9.30
2023-01-27T19:42:09.308Z,8.75
2023-01-27T19:44:41.446Z,9.43
2023-01-27T19:47:18.443Z,8.15
2023-01-27T19:49:47.519Z,7.68
2023-01-27T19:52:23.977Z,7.68
2023-01-27T19:58:13.367Z,7.80
2023-01-27T20:07:27.407Z,7.10
2023-01-27T20:12:40.134Z,7.45
2023-01-27T20:15:16.840Z,8.10
2023-01-27T20:17:43.593Z,8.18
2023-01-27T20:20:16.339Z,8.90
2023-01-27T20:22:42.975Z,9.40
2023-01-27T20:25:22.595Z,10.73
2023-01-27T20:27:53.715Z,10.10
2023-01-27T20:33:31.095Z,9.90
2023-01-27T20:36:01.922Z,9.70
2023-01-27T20:38:31.247Z,9.70
2023-01-27T20:41:35.365Z,10.40
2023-01-27T20:44:01.946Z,10.27
2023-01-27T20:46:29.352Z,10.15
2023-01-27T20:48:56.494Z,8.85
2023-01-27T20:51:36.749Z,8.63
2023-01-27T20:54:05.625Z,8.40
2023-01-27T20:56:32.215Z,9.13
2023-01-27T21:02:08.672Z,9.80
2023-01-27T21:04:36.986Z,9.75
2023-01-27T21:07:21.181Z,10.23
2023-01-27T21:13:00.375Z,10.00
2023-01-27T21:16:18.335Z,9.93
2023-01-27T21:19:19.223Z,8.90
2023-01-27T21:21:56.606Z,10.20
2023-01-27T21:24:24.194Z,9.57
2023-01-27T21:29:55.989Z,9.50
2023-01-27T21:32:25.821Z,9.07
2023-01-27T21:37:59.171Z,10.70
2023-01-27T21:40:28.267Z,10.05
2023-01-27T21:43:16.504Z,10.38
2023-01-27T21:45:43.224Z,10.38
2023-01-27T21:48:09.795Z,9.88
2023-01-27T21:50:39.335Z,10.07
2023-01-27T21:53:23.625Z,9.82
2023-01-27T21:55:56.317Z,9.48
2023-01-27T21:58:25.186Z,10.23
2023-01-27T22:01:14.037Z,9.75
2023-01-27T22:03:42.940Z,10.02
2023-01-27T22:06:09.804Z,9.88
2023-01-27T22:08:59.781Z,10.07
2023-01-27T22:11:26.312Z,10.73
2023-01-27T22:13:58.239Z,10.60
2023-01-27T22:16:26.127Z,11.80
2023-01-27T22:18:55.184Z,11.07
2023-01-27T22:21:24.666Z,11.95
2023-01-27T22:23:52.298Z,11.60
2023-01-27T22:26:20.666Z,11.63
2023-01-27T22:28:59.101Z,11.07
2023-01-27T22:31:25.589Z,10.98
2023-01-27T22:33:53.109Z,10.98
2023-01-27T22:36:19.587Z,11.27
2023-01-27T22:38:46.153Z,10.43
2023-01-27T22:41:18.683Z,10.77
2023-01-27T22:43:45.326Z,10.13
2023-01-27T22:46:11.811Z,10.88
2023-01-27T22:48:38.251Z,11.10
2023-01-27T22:51:05.143Z,10.60
2023-01-27T22:53:32.132Z,10.27
2023-01-27T22:55:59.264Z,10.68
2023-01-27T22:58:26.386Z,10.38
2023-01-27T23:00:53.128Z,10.63
2023-01-27T23:03:19.870Z,10.95
2023-01-27T23:05:46.319Z,11.63
2023-01-27T23:08:12.870Z,10.88
2023-01-27T23:10:39.430Z,11.30
2023-01-27T23:13:05.871Z,11.20
2023-01-27T23:15:32.298Z,10.88
2023-01-27T23:17:58.826Z,10.52
2023-01-27T23:20:25.313Z,10.18
2023-01-27T23:22:51.780Z,11.18
2023-01-27T23:25:20.010Z,10.98
2023-01-27T23:27:46.441Z,11.15
2023-01-27T23:30:13.102Z,11.18
2023-01-27T23:32:40.254Z,10.88
2023-01-27T23:35:06.904Z,11.27
2023-01-27T23:37:33.485Z,10.52
2023-01-27T23:40:00.055Z,10.30
2023-01-27T23:42:26.537Z,10.57
2023-01-27T23:44:53.041Z,9.98
2023-01-27T23:47:19.440Z,9.75
2023-01-27T23:49:46.120Z,10.35
2023-01-27T23:52:12.545Z,10.25
2023-01-27T23:54:39.028Z,10.30
2023-01-27T23:57:05.458Z,10.00
2023-01-27T23:59:31.896Z,10.13
